createdAt,value
2023-04-05T00:03:54.577Z,3.83
2023-04-05T00:09:00.839Z,4.20
2023-04-05T00:14:03.351Z,4.68
2023-04-05T00:19:05.652Z,4.22
2023-04-05T00:24:09.330Z,4.32
2023-04-05T00:29:11.102Z,4.70
2023-04-05T00:34:12.845Z,4.80
2023-04-05T00:39:14.645Z,4.32
2023-04-05T00:44:16.335Z,4.70
2023-04-05T00:49:18.099Z,4.63
2023-04-05T00:54:19.771Z,4.43
2023-04-05T00:59:21.811Z,4.55
2023-04-05T01:04:26.766Z,4.47
2023-04-05T01:09:38.328Z,4.22
2023-04-05T01:14:46.973Z,4.53
2023-04-05T01:20:08.901Z,4.22
2023-04-05T01:25:22.846Z,4.80
2023-04-05T01:30:36.221Z,4.72
2023-04-05T01:35:59.343Z,4.97
2023-04-05T01:41:01.074Z,4.50
2023-04-05T01:46:02.913Z,4.18
2023-04-05T01:51:04.899Z,4.43
2023-04-05T01:56:06.713Z,4.75
2023-04-05T02:01:08.506Z,4.50
2023-04-05T02:06:10.270Z,3.75
2023-04-05T02:11:11.960Z,3.83
2023-04-05T02:16:13.759Z,3.85
2023-04-05T02:21:16.667Z,3.85
2023-04-05T02:26:18.537Z,3.80
2023-04-05T02:31:20.845Z,3.50
2023-04-05T02:36:22.557Z,3.67
2023-04-05T02:41:25.732Z,4.50
2023-04-05T02:46:27.440Z,4.93
2023-04-05T02:51:29.167Z,5.55
2023-04-05T02:56:30.905Z,5.70
2023-04-05T03:01:32.913Z,5.28
2023-04-05T03:06:34.580Z,6.85
2023-04-05T03:11:36.311Z,5.20
2023-04-05T03:16:41.663Z,5.65
2023-04-05T03:21:43.360Z,5.50
2023-04-05T03:26:46.982Z,5.97
2023-04-05T03:31:49.793Z,6.10
2023-04-05T03:36:51.494Z,5.30
2023-04-05T03:41:53.256Z,5.28
2023-04-05T03:46:54.934Z,5.00
2023-04-05T03:51:56.606Z,4.93
2023-04-05T03:56:58.335Z,4.72
2023-04-05T04:02:00.154Z,4.95
2023-04-05T04:07:02.108Z,4.47
2023-04-05T04:12:03.977Z,4.00
2023-04-05T04:17:05.830Z,4.30
2023-04-05T04:22:10.161Z,3.88
2023-04-05T04:27:12.077Z,3.88
2023-04-05T04:32:17.312Z,3.80
2023-04-05T04:37:22.648Z,3.50
2023-04-05T04:42:25.854Z,4.13
2023-04-05T04:47:27.706Z,4.05
2023-04-05T04:52:29.462Z,6.75
2023-04-05T04:57:32.180Z,5.35
2023-04-05T05:02:33.906Z,4.70
2023-04-05T05:07:36.643Z,4.75
2023-04-05T05:12:38.989Z,4.70
2023-04-05T05:17:40.725Z,4.20
2023-04-05T05:22:42.500Z,3.97
2023-04-05T05:27:44.270Z,3.65
2023-04-05T05:32:46.052Z,4.60
2023-04-05T05:37:47.776Z,5.85
2023-04-05T05:42:50.508Z,5.03
2023-04-05T05:47:52.504Z,5.78
2023-04-05T05:52:54.696Z,5.45
2023-04-05T05:57:56.558Z,5.38
2023-04-05T06:02:59.310Z,5.68
2023-04-05T06:08:01.376Z,6.15
2023-04-05T06:13:04.387Z,6.38
2023-04-05T06:18:06.247Z,8.98
2023-04-05T06:23:07.982Z,5.15
2023-04-05T06:28:09.727Z,4.43
2023-04-05T06:33:11.531Z,4.47
2023-04-05T06:38:13.313Z,3.97
2023-04-05T06:43:15.011Z,3.78
2023-04-05T06:48:16.728Z,3.88
2023-04-05T06:53:19.651Z,4.00
2023-04-05T06:58:21.820Z,4.90
2023-04-05T07:03:23.749Z,4.97
2023-04-05T07:08:27.026Z,4.68
2023-04-05T07:13:28.836Z,4.95
2023-04-05T07:18:30.894Z,4.80
2023-04-05T07:23:32.673Z,5.10
2023-04-05T07:28:35.908Z,4.35
2023-04-05T07:33:37.860Z,4.90
2023-04-05T07:38:39.765Z,8.70
2023-04-05T07:43:41.752Z,4.57
2023-04-05T07:48:43.550Z,3.92
2023-04-05T07:53:45.492Z,2.83
2023-04-05T07:58:48.084Z,11.68
2023-04-05T08:03:49.900Z,2.92
2023-04-05T08:08:51.773Z,3.70
2023-04-05T08:13:54.393Z,3.35
2023-04-05T08:18:56.201Z,3.60
2023-04-05T08:23:58.231Z,3.30
2023-04-05T08:28:59.999Z,2.45
2023-04-05T08:34:01.734Z,3.10
2023-04-05T08:39:03.957Z,2.90
2023-04-05T08:44:07.637Z,3.20
2023-04-05T08:49:11.511Z,2.80
2023-04-05T08:54:14.386Z,2.65
2023-04-05T08:59:17.584Z,2.63
2023-04-05T09:04:24.234Z,2.90
2023-04-05T09:09:27.133Z,2.10
2023-04-05T09:14:31.114Z,2.55
2023-04-05T09:19:32.963Z,2.10
2023-04-05T09:24:41.498Z,2.70
2023-04-05T09:29:47.947Z,2.72
2023-04-05T09:34:53.947Z,2.40
2023-04-05T09:40:04.110Z,2.17
2023-04-05T09:45:07.218Z,2.40
2023-04-05T09:50:19.035Z,2.15
2023-04-05T09:55:28.588Z,1.95
2023-04-05T10:00:33.211Z,1.90
2023-04-05T10:05:34.932Z,2.08
2023-04-05T10:10:46.137Z,2.15
2023-04-05T10:15:53.375Z,1.90
2023-04-05T10:20:58.560Z,1.90
2023-04-05T10:26:21.791Z,1.90
2023-04-05T10:31:37.737Z,2.55
2023-04-05T10:36:49.606Z,1.80
2023-04-05T10:42:02.277Z,1.90
2023-04-05T10:47:07.017Z,1.95
2023-04-05T10:52:09.813Z,2.08
2023-04-05T10:57:12.522Z,2.17
2023-04-05T11:02:16.362Z,1.90
2023-04-05T11:07:19.897Z,1.80
2023-04-05T11:12:47.365Z,1.95
2023-04-05T11:18:04.451Z,2.17
2023-04-05T11:23:06.264Z,2.10
2023-04-05T11:28:11.973Z,2.10
2023-04-05T11:33:37.460Z,2.00
2023-04-05T11:38:42.551Z,2.08
2023-04-05T11:43:45.061Z,3.60
2023-04-05T11:48:50.585Z,2.28
2023-04-05T11:53:52.356Z,2.03
2023-04-05T11:58:58.674Z,2.05
2023-04-05T12:04:00.799Z,2.20
2023-04-05T12:09:07.525Z,2.15
2023-04-05T12:14:09.265Z,2.25
2023-04-05T12:19:11.069Z,2.10
2023-04-05T12:24:13.025Z,2.10
2023-04-05T12:29:14.817Z,2.10
2023-04-05T12:34:24.056Z,2.08
2023-04-05T12:39:31.329Z,2.10
2023-04-05T12:44:35.218Z,2.15
2023-04-05T12:49:40.133Z,2.30
2023-04-05T12:54:41.961Z,2.15
2023-04-05T12:59:43.991Z,2.05
2023-04-05T13:04:45.830Z,2.10
2023-04-05T13:09:47.695Z,2.05
2023-04-05T13:14:49.613Z,2.13
2023-04-05T13:19:51.616Z,2.38
2023-04-05T13:24:54.071Z,2.60
2023-04-05T13:29:57.400Z,2.35
2023-04-05T13:34:59.360Z,2.00
2023-04-05T13:40:02.067Z,2.10
2023-04-05T13:45:05.045Z,2.45
2023-04-05T13:50:08.293Z,3.15
2023-04-05T13:55:10.924Z,3.10
2023-04-05T14:00:13.715Z,2.22
2023-04-05T14:05:17.169Z,2.70
2023-04-05T14:10:22.324Z,2.50
2023-04-05T14:15:24.321Z,2.40
2023-04-05T14:20:26.104Z,2.95
2023-04-05T14:25:27.896Z,3.40
2023-04-05T14:30:29.745Z,2.55
2023-04-05T14:35:31.533Z,2.78
2023-04-05T14:40:33.494Z,2.60
2023-04-05T14:45:35.469Z,2.53
2023-04-05T14:50:37.509Z,2.50
2023-04-05T14:55:40.742Z,2.50
2023-04-05T15:00:44.387Z,2.80
2023-04-05T15:05:47.436Z,2.20
2023-04-05T15:10:49.698Z,2.55
2023-04-05T15:15:51.745Z,3.00
2023-04-05T15:20:53.616Z,3.47
2023-04-05T15:25:55.465Z,2.33
2023-04-05T15:30:57.252Z,4.00
2023-04-05T15:35:59.107Z,6.40
2023-04-05T15:41:01.045Z,3.78
2023-04-05T15:46:04.828Z,2.90
2023-04-05T15:51:06.769Z,3.22
2023-04-05T15:56:08.501Z,2.78
2023-04-05T16:01:10.699Z,2.85
2023-04-05T16:06:12.498Z,2.53
2023-04-05T16:11:14.246Z,2.70
2023-04-05T16:16:27.580Z,2.47
2023-04-05T16:21:36.902Z,2.28
2023-04-05T16:26:38.623Z,3.28
2023-04-05T16:31:40.587Z,2.75
2023-04-05T16:36:42.462Z,3.05
2023-04-05T16:41:44.456Z,3.20
2023-04-05T16:46:47.152Z,4.10
2023-04-05T16:51:48.950Z,3.30
2023-04-05T16:56:51.938Z,3.50
2023-04-05T17:01:53.739Z,3.08
2023-04-05T17:06:55.736Z,3.88
2023-04-05T17:11:57.548Z,3.08
2023-04-05T17:16:59.297Z,2.63
2023-04-05T17:22:01.458Z,3.17
2023-04-05T17:27:04.451Z,3.00
2023-04-05T17:32:07.022Z,3.35
2023-04-05T17:37:08.900Z,3.58
2023-04-05T17:42:10.917Z,2.80
2023-04-05T17:47:12.688Z,3.78
2023-04-05T17:52:14.669Z,3.00
2023-04-05T17:57:16.542Z,2.90
2023-04-05T18:02:18.557Z,2.88
2023-04-05T18:07:20.556Z,4.10
2023-04-05T18:12:22.548Z,3.22
2023-04-05T18:17:24.333Z,3.85
2023-04-05T18:22:26.361Z,4.50
2023-04-05T18:27:28.875Z,3.80
2023-04-05T18:32:30.709Z,4.50
2023-04-05T18:37:32.471Z,4.57
2023-04-05T18:42:35.415Z,4.68
2023-04-05T18:47:37.214Z,4.60
2023-04-05T18:52:39.048Z,4.88
2023-04-05T18:57:40.883Z,4.95
2023-04-05T19:02:42.681Z,4.63
2023-04-05T19:07:44.565Z,4.63
2023-04-05T19:12:46.421Z,4.32
2023-04-05T19:17:48.307Z,4.57
2023-04-05T19:22:50.332Z,5.65
2023-04-05T19:27:52.053Z,7.50
2023-04-05T19:32:56.974Z,5.93
2023-04-05T19:37:59.009Z,5.63
2023-04-05T19:43:02.020Z,5.80
2023-04-05T19:48:27.946Z,5.30
2023-04-05T19:53:47.728Z,5.70
2023-04-05T19:58:53.960Z,5.57
2023-04-05T20:03:55.746Z,6.00
2023-04-05T20:09:03.379Z,5.55
2023-04-05T20:14:06.393Z,5.30
2023-04-05T20:19:10.145Z,5.03
2023-04-05T20:24:18.746Z,5.18
2023-04-05T20:29:27.603Z,5.30
2023-04-05T20:34:31.296Z,5.53
2023-04-05T20:39:34.243Z,5.50
2023-04-05T20:44:36.295Z,5.95
2023-04-05T20:49:38.014Z,5.90
2023-04-05T20:54:39.742Z,5.72
2023-04-05T20:59:41.538Z,5.55
2023-04-05T21:04:43.615Z,5.40
2023-04-05T21:09:45.303Z,7.95
2023-04-05T21:14:47.057Z,7.20
2023-04-05T21:19:48.779Z,6.25
2023-04-05T21:24:50.544Z,6.32
2023-04-05T21:29:52.261Z,6.88
2023-04-05T21:34:54.008Z,7.22
2023-04-05T21:39:55.951Z,6.15
2023-04-05T21:44:57.883Z,6.43
2023-04-05T21:49:59.918Z,6.55
2023-04-05T21:55:01.839Z,6.78
2023-04-05T22:00:07.194Z,6.10
2023-04-05T22:05:09.469Z,7.07
2023-04-05T22:10:11.413Z,6.85
2023-04-05T22:15:13.192Z,7.38
2023-04-05T22:20:15.383Z,7.07
2023-04-05T22:25:17.196Z,7.60
2023-04-05T22:30:20.496Z,6.78
2023-04-05T22:35:22.228Z,6.47
2023-04-05T22:40:27.013Z,6.85
2023-04-05T22:45:28.902Z,6.63
2023-04-05T22:50:31.303Z,6.60
2023-04-05T22:55:33.049Z,6.80
2023-04-05T23:00:38.094Z,6.25
2023-04-05T23:05:39.837Z,6.80
2023-04-05T23:10:42.738Z,5.85
2023-04-05T23:15:44.586Z,6.50
2023-04-05T23:20:46.534Z,6.35
2023-04-05T23:25:48.338Z,6.25
2023-04-05T23:30:50.119Z,5.88
2023-04-05T23:35:51.926Z,5.82
2023-04-05T23:40:53.714Z,5.57
2023-04-05T23:45:55.448Z,6.18
2023-04-05T23:50:57.170Z,5.63
2023-04-05T23:55:58.967Z,6.32
